createdAt,value
2019-04-21T00:00:45.560Z,66.10
2019-04-21T00:05:06.202Z,66.20
2019-04-21T00:09:27.804Z,66.30
2019-04-21T00:13:28.084Z,66.60
2019-04-21T00:17:26.313Z,66.80
2019-04-21T00:21:43.318Z,67.00
2019-04-21T00:25:59.646Z,66.80
2019-04-21T00:30:15.829Z,67.10
2019-04-21T00:34:07.361Z,67.30
2019-04-21T00:38:40.447Z,67.70
2019-04-21T00:42:43.551Z,67.80
2019-04-21T00:46:54.244Z,68.00
2019-04-21T00:51:25.085Z,68.30
2019-04-21T00:55:37.405Z,68.30
2019-04-21T00:59:43.303Z,69.50
2019-04-21T01:03:55.033Z,69.10
2019-04-21T01:08:01.431Z,69.00
2019-04-21T01:12:12.727Z,69.40
2019-04-21T01:16:31.686Z,69.40
2019-04-21T01:20:17.280Z,69.50
2019-04-21T01:24:30.781Z,69.70
2019-04-21T01:28:52.414Z,70.00
2019-04-21T01:33:09.466Z,70.00
2019-04-21T01:37:10.346Z,70.40
2019-04-21T01:41:35.532Z,70.50
2019-04-21T01:45:31.715Z,70.60
2019-04-21T01:49:37.018Z,70.70
2019-04-21T01:54:22.022Z,70.80
2019-04-21T01:58:24.514Z,70.60
2019-04-21T02:02:47.708Z,71.10
2019-04-21T02:06:57.273Z,71.60
2019-04-21T02:11:09.275Z,71.80
2019-04-21T02:15:20.126Z,72.00
2019-04-21T02:19:19.283Z,72.20
2019-04-21T02:23:43.970Z,72.40
2019-04-21T02:27:51.598Z,72.30
2019-04-21T02:36:37.319Z,72.50
2019-04-21T02:40:29.430Z,72.50
2019-04-21T02:44:43.290Z,72.50
2019-04-21T02:48:56.456Z,72.70
2019-04-21T02:53:05.242Z,72.80
2019-04-21T02:57:28.100Z,72.60
2019-04-21T03:01:49.021Z,73.00
2019-04-21T03:05:58.789Z,73.30
2019-04-21T03:10:11.838Z,73.50
2019-04-21T03:14:31.490Z,73.80
2019-04-21T03:18:46.491Z,73.90
2019-04-21T03:22:49.095Z,73.80
2019-04-21T03:27:01.874Z,74.00
2019-04-21T03:31:42.216Z,74.20
2019-04-21T03:35:49.139Z,74.50
2019-04-21T03:39:30.957Z,74.70
2019-04-21T03:43:34.814Z,75.00
2019-04-21T03:47:46.441Z,75.10
2019-04-21T03:52:03.201Z,75.00
2019-04-21T03:56:27.040Z,75.00
2019-04-21T04:00:36.488Z,74.90
2019-04-21T04:04:49.663Z,75.20
2019-04-21T04:09:14.254Z,75.40
2019-04-21T04:13:20.375Z,75.90
2019-04-21T04:17:30.156Z,76.30
2019-04-21T04:21:44.245Z,76.30
2019-04-21T04:25:45.578Z,76.30
2019-04-21T04:29:59.181Z,76.40
2019-04-21T04:34:14.640Z,76.40
2019-04-21T04:38:30.097Z,76.60
2019-04-21T04:47:02.884Z,76.70
2019-04-21T04:51:12.188Z,76.70
2019-04-21T04:55:08.527Z,76.50
2019-04-21T04:59:33.783Z,76.40
2019-04-21T05:03:47.310Z,76.50
2019-04-21T05:07:50.485Z,75.50
2019-04-21T05:11:50.574Z,73.60
2019-04-21T05:16:18.554Z,71.60
2019-04-21T05:24:21.487Z,67.90
2019-04-21T05:28:21.463Z,66.20
2019-04-21T05:32:55.562Z,66.10
2019-04-21T05:37:24.514Z,66.90
2019-04-21T05:41:24.014Z,67.20
2019-04-21T05:45:50.070Z,67.50
2019-04-21T05:49:55.677Z,67.60
2019-04-21T05:54:23.029Z,68.30
2019-04-21T05:58:21.346Z,67.30
2019-04-21T06:02:44.106Z,67.00
2019-04-21T06:06:47.240Z,66.80
2019-04-21T06:11:16.145Z,66.60
2019-04-21T06:15:07.951Z,65.90
2019-04-21T06:19:14.524Z,65.50
2019-04-21T06:23:28.691Z,65.10
2019-04-21T06:27:52.645Z,64.40
2019-04-21T06:32:16.715Z,63.30
2019-04-21T06:44:48.876Z,59.90
2019-04-21T06:48:57.080Z,59.40
2019-04-21T06:53:04.005Z,58.70
2019-04-21T06:57:11.790Z,58.00
2019-04-21T07:01:24.110Z,57.60
2019-04-21T07:05:35.350Z,57.00
2019-04-21T07:09:48.268Z,56.50
2019-04-21T07:14:03.077Z,56.50
2019-04-21T07:18:09.280Z,55.40
2019-04-21T07:22:17.660Z,54.60
2019-04-21T07:26:25.463Z,53.60
2019-04-21T07:34:48.055Z,52.70
2019-04-21T07:38:57.166Z,52.40
2019-04-21T07:43:03.886Z,51.60
2019-04-21T07:47:20.327Z,50.90
2019-04-21T07:51:54.899Z,50.40
2019-04-21T07:55:38.024Z,49.50
2019-04-21T08:04:39.300Z,48.30
2019-04-21T08:08:29.657Z,47.80
2019-04-21T08:12:40.794Z,46.00
2019-04-21T08:16:51.136Z,45.30
2019-04-21T08:21:02.989Z,45.30
2019-04-21T08:25:13.860Z,45.20
2019-04-21T08:29:29.700Z,44.90
2019-04-21T08:33:42.881Z,44.50
2019-04-21T08:37:43.251Z,43.20
2019-04-21T08:41:51.166Z,41.10
2019-04-21T08:46:06.810Z,39.50
2019-04-21T08:50:17.324Z,38.80
2019-04-21T08:54:26.512Z,36.40
2019-04-21T08:58:56.117Z,34.40
2019-04-21T09:03:06.495Z,33.10
2019-04-21T09:11:29.492Z,31.80
2019-04-21T09:15:41.590Z,29.70
2019-04-21T09:20:13.402Z,29.30
2019-04-21T09:24:05.628Z,28.30
2019-04-21T09:28:14.060Z,28.10
2019-04-21T09:32:12.348Z,29.30
2019-04-21T09:36:20.159Z,29.50
2019-04-21T09:40:34.026Z,29.30
2019-04-21T09:44:40.994Z,27.90
2019-04-21T09:48:55.665Z,27.00
2019-04-21T09:53:10.858Z,27.60
2019-04-21T09:57:21.934Z,28.80
2019-04-21T10:01:28.814Z,28.90
2019-04-21T10:05:31.717Z,28.00
2019-04-21T10:09:40.793Z,28.80
2019-04-21T10:13:50.753Z,28.80
2019-04-21T10:18:02.951Z,29.70
2019-04-21T10:22:12.656Z,28.80
2019-04-21T10:26:22.222Z,28.10
2019-04-21T10:30:31.137Z,28.50
2019-04-21T10:34:41.252Z,25.40
2019-04-21T10:38:53.180Z,27.40
2019-04-21T10:43:00.934Z,25.50
2019-04-21T10:47:11.016Z,25.70
2019-04-21T10:51:21.205Z,25.50
2019-04-21T10:55:45.064Z,26.70
2019-04-21T10:59:46.228Z,26.90
2019-04-21T11:04:31.279Z,24.70
2019-04-21T11:08:42.941Z,25.30
2019-04-21T11:12:48.383Z,26.30
2019-04-21T11:16:58.586Z,26.20
2019-04-21T11:21:09.060Z,26.40
2019-04-21T11:25:18.234Z,26.50
2019-04-21T11:29:28.503Z,26.50
2019-04-21T11:33:37.794Z,26.10
2019-04-21T11:37:48.303Z,26.40
2019-04-21T11:41:57.677Z,27.00
2019-04-21T11:46:06.750Z,26.80
2019-04-21T11:50:16.984Z,26.10
2019-04-21T11:54:26.807Z,25.60
2019-04-21T11:58:36.148Z,25.40
2019-04-21T12:02:45.711Z,25.30
2019-04-21T12:06:55.978Z,25.20
2019-04-21T12:11:05.546Z,25.40
2019-04-21T12:15:14.706Z,25.00
2019-04-21T12:19:25.010Z,24.90
2019-04-21T12:23:34.371Z,25.40
2019-04-21T12:27:43.903Z,24.80
2019-04-21T12:32:15.943Z,25.00
2019-04-21T12:36:25.366Z,25.70
2019-04-21T12:40:34.674Z,25.80
2019-04-21T12:44:43.759Z,25.60
2019-04-21T12:48:53.739Z,24.80
2019-04-21T12:53:03.322Z,25.00
2019-04-21T12:57:13.732Z,25.30
2019-04-21T13:01:23.270Z,25.20
2019-04-21T13:05:33.703Z,25.20
2019-04-21T13:09:44.195Z,25.50
2019-04-21T13:13:53.655Z,25.40
2019-04-21T13:18:02.821Z,25.10
2019-04-21T13:22:12.259Z,24.60
2019-04-21T13:26:30.802Z,24.90
2019-04-21T13:30:32.593Z,24.90
2019-04-21T13:34:42.178Z,24.80
2019-04-21T13:39:37.779Z,24.80
2019-04-21T13:43:21.127Z,24.50
2019-04-21T13:47:30.532Z,24.70
2019-04-21T13:51:39.938Z,25.10
2019-04-21T13:55:48.833Z,24.10
2019-04-21T13:59:57.645Z,24.40
2019-04-21T14:04:07.376Z,24.50
2019-04-21T14:08:16.394Z,24.90
2019-04-21T14:12:25.440Z,24.30
2019-04-21T14:16:34.458Z,24.70
2019-04-21T14:20:44.914Z,24.30
2019-04-21T14:24:54.163Z,24.90
2019-04-21T14:29:03.582Z,24.70
2019-04-21T14:33:14.090Z,24.40
2019-04-21T14:37:24.587Z,24.70
2019-04-21T14:41:33.842Z,24.50
2019-04-21T14:45:48.499Z,24.10
2019-04-21T14:50:24.405Z,24.20
2019-04-21T14:54:58.918Z,24.20
2019-04-21T14:59:09.040Z,24.20
2019-04-21T15:03:19.259Z,24.00
2019-04-21T15:07:28.690Z,24.80
2019-04-21T15:11:38.082Z,24.50
2019-04-21T15:15:47.952Z,24.50
2019-04-21T15:20:04.091Z,24.30
2019-04-21T15:24:08.898Z,24.50
2019-04-21T15:28:17.974Z,24.10
2019-04-21T15:32:28.326Z,24.70
2019-04-21T15:36:37.937Z,24.90
2019-04-21T15:40:54.785Z,24.80
2019-04-21T15:44:58.799Z,24.80
2019-04-21T15:49:09.187Z,24.80
2019-04-21T15:53:19.381Z,25.20
2019-04-21T15:57:35.531Z,25.10
2019-04-21T16:01:56.701Z,24.90
2019-04-21T16:06:05.790Z,24.80
2019-04-21T16:10:28.286Z,24.90
2019-04-21T16:14:27.010Z,24.80
2019-04-21T16:18:36.316Z,25.00
2019-04-21T16:22:46.469Z,24.90
2019-04-21T16:26:56.541Z,24.60
2019-04-21T16:31:06.757Z,25.00
2019-04-21T16:35:18.309Z,25.00
2019-04-21T16:39:27.445Z,25.20
2019-04-21T16:43:37.489Z,25.10
2019-04-21T16:47:49.061Z,24.90
2019-04-21T16:52:16.276Z,25.60
2019-04-21T16:56:37.353Z,25.70
2019-04-21T17:00:59.531Z,25.50
2019-04-21T17:05:02.507Z,25.70
2019-04-21T17:09:12.674Z,25.60
2019-04-21T17:13:22.366Z,25.00
2019-04-21T17:17:57.290Z,23.50
2019-04-21T17:21:43.688Z,22.50
2019-04-21T17:25:53.128Z,22.10
2019-04-21T17:30:02.124Z,21.20
2019-04-21T17:34:16.173Z,21.60
2019-04-21T17:38:21.874Z,21.00
2019-04-21T17:42:42.950Z,20.80
2019-04-21T17:46:48.548Z,21.00
2019-04-21T17:51:07.724Z,21.00
2019-04-21T17:55:27.786Z,21.90
2019-04-21T18:04:12.643Z,26.50
2019-04-21T18:08:18.531Z,28.50
2019-04-21T18:12:25.009Z,29.70
2019-04-21T18:16:28.709Z,31.00
2019-04-21T18:20:32.294Z,32.30
2019-04-21T18:24:54.193Z,33.30
2019-04-21T18:28:56.933Z,34.40
2019-04-21T18:33:12.084Z,35.50
2019-04-21T18:37:41.761Z,36.40
2019-04-21T18:42:04.832Z,37.20
2019-04-21T18:46:27.000Z,38.30
2019-04-21T18:51:00.518Z,39.20
2019-04-21T18:55:16.591Z,39.80
2019-04-21T18:59:16.289Z,40.70
2019-04-21T19:03:35.125Z,41.40
2019-04-21T19:07:58.420Z,42.10
2019-04-21T19:12:07.662Z,43.00
2019-04-21T19:16:27.979Z,43.70
2019-04-21T19:20:29.490Z,44.30
2019-04-21T19:24:46.562Z,45.00
2019-04-21T19:28:52.237Z,45.60
2019-04-21T19:32:58.004Z,46.10
2019-04-21T19:37:00.057Z,47.10
2019-04-21T19:41:21.894Z,47.30
2019-04-21T19:45:29.391Z,47.90
2019-04-21T19:49:45.272Z,48.30
2019-04-21T19:53:44.847Z,48.60
2019-04-21T19:57:45.131Z,49.00
2019-04-21T20:01:54.186Z,49.50
2019-04-21T20:06:14.158Z,49.90
2019-04-21T20:10:33.428Z,50.30
2019-04-21T20:18:42.402Z,50.90
2019-04-21T20:22:50.233Z,51.20
2019-04-21T20:27:06.918Z,51.60
2019-04-21T20:31:23.647Z,51.90
2019-04-21T20:35:46.566Z,52.20
2019-04-21T20:39:40.401Z,52.70
2019-04-21T20:44:02.478Z,53.10
2019-04-21T20:47:54.134Z,53.20
2019-04-21T20:52:18.745Z,53.40
2019-04-21T20:56:21.148Z,53.80
2019-04-21T21:00:47.191Z,54.00
2019-04-21T21:04:43.444Z,54.40
2019-04-21T21:09:01.636Z,54.10
2019-04-21T21:13:20.419Z,54.30
2019-04-21T21:17:40.168Z,54.60
2019-04-21T21:21:32.721Z,54.70
2019-04-21T21:26:03.041Z,55.10
2019-04-21T21:29:57.297Z,55.80
2019-04-21T21:34:10.379Z,55.80
2019-04-21T21:38:19.766Z,56.10
2019-04-21T21:42:13.317Z,56.20
2019-04-21T21:46:42.964Z,56.40
2019-04-21T21:50:45.647Z,56.50
2019-04-21T21:54:43.567Z,56.50
2019-04-21T21:58:53.849Z,57.00
2019-04-21T22:03:14.291Z,57.50
2019-04-21T22:07:17.126Z,57.60
2019-04-21T22:11:26.289Z,57.60
2019-04-21T22:15:35.574Z,57.70
2019-04-21T22:20:10.515Z,57.70
2019-04-21T22:24:04.774Z,57.60
2019-04-21T22:28:07.445Z,58.60
2019-04-21T22:32:21.581Z,59.00
2019-04-21T22:36:43.834Z,59.30
2019-04-21T22:40:50.845Z,59.60
2019-04-21T22:44:50.020Z,59.90
2019-04-21T22:49:04.925Z,59.70
2019-04-21T22:53:11.728Z,59.90
2019-04-21T22:57:23.726Z,60.30
2019-04-21T23:01:40.545Z,60.10
2019-04-21T23:05:44.693Z,60.40
2019-04-21T23:09:53.520Z,60.70
2019-04-21T23:14:06.551Z,61.00
2019-04-21T23:18:30.713Z,61.30
2019-04-21T23:22:55.003Z,61.50
2019-04-21T23:26:48.666Z,61.90
2019-04-21T23:31:09.759Z,62.00
2019-04-21T23:35:06.176Z,62.20
2019-04-21T23:39:15.980Z,62.50
2019-04-21T23:43:24.402Z,62.60
2019-04-21T23:47:42.076Z,62.80
2019-04-21T23:51:47.043Z,63.80
2019-04-21T23:55:50.671Z,63.00
